Flight Track Log - Related Links

Times and Time Zones

All times are in EDT time to prevent confusion due to time zone crossing. See the LXJ550 flight status page for this flight to view local times or setup timezone preferences in your user account.

Time Position Orientation Groundspeed Altitude Reporting Facility
EDT Latitude Longitude Course Direction KTS MPH feet Rate Location/Type
Thu 06:40:29 PM 37.3761 -121.9460 315° West 182 209 1,500  Level FlightAware ADS-B
Thu 06:40:44 PM 37.3865 -121.9580 318° Northwest 208 239 2,200 2,516 Climbing FlightAware ADS-B
Thu 06:41:00 PM 37.3979 -121.9710 320° Northwest 209 241 2,800 2,640 Climbing FlightAware ADS-B
Thu 06:41:09 PM 37.4050 -121.9780 325° Northwest 209 241 3,300 3,000 Climbing FlightAware ADS-B
Thu 06:41:10 PM 37.3683 -121.9367 325° Northwest 210 242 3,300 2,000 Level FlightAware ADS-B (EDDM / MUC)
Thu 06:41:12 PM 37.4076 -121.9800 330° Northwest 210 242 3,400 2,000 Climbing FlightAware ADS-B
Thu 06:41:16 PM 37.4108 -121.9810 340° North 213 245 3,500 1,714 Climbing FlightAware ADS-B
Thu 06:41:19 PM 37.4143 -121.9820 347° North 214 246 3,600 2,000 Climbing FlightAware ADS-B
Thu 06:41:22 PM 37.4175 -121.9830 357° North 216 249 3,700 1,500 Climbing FlightAware ADS-B
Thu 06:41:27 PM 37.4218 -121.9830 North 219 252 3,800 1,333 Climbing FlightAware ADS-B
Thu 06:41:31 PM 37.4258 -121.9820 13° North 220 253 3,900 1,800 Climbing FlightAware ADS-B
Thu 06:41:37 PM 37.4322 -121.9780 23° Northeast 223 257 4,100 1,636 Climbing FlightAware ADS-B
Thu 06:41:42 PM 37.4361 -121.9740 39° Northeast 227 261 4,200 1,000 Climbing FlightAware ADS-B
Thu 06:41:49 PM 37.4408 -121.9670 54° Northeast 227 261 4,300 1,091 Climbing FlightAware ADS-B
Thu 06:41:53 PM 37.4428 -121.9630 63° Northeast 228 262 4,400 857 Climbing FlightAware ADS-B
Thu 06:41:56 PM 37.4439 -121.9590 70° East 228 262 4,400 667 Level FlightAware ADS-B
Thu 06:42:02 PM 37.4450 -121.9510 83° East 228 262 4,500 1,000 Climbing FlightAware ADS-B
Thu 06:42:08 PM 37.4446 -121.9430 97° East 229 264 4,600 857 Climbing FlightAware ADS-B
Thu 06:42:09 PM 37.4419 -121.9650 102° East 229 264 4,600 2,000 Level FlightAware ADS-B (EPLL / LCJ)
Thu 06:42:11 PM 37.4438 -121.9390 104° East 228 262 4,700 1,333 Climbing FlightAware ADS-B
Thu 06:42:18 PM 37.4410 -121.9310 119° Southeast 227 261 4,800 545 Climbing FlightAware ADS-B
Thu 06:42:22 PM 37.4384 -121.9270 128° Southeast 227 261 4,800 667 Level FlightAware ADS-B
Thu 06:42:27 PM 37.4347 -121.9220 134° Southeast 226 260 4,900 600 Climbing FlightAware ADS-B
Thu 06:42:42 PM 37.4233 -121.9070 134° Southeast 242 278 5,000 300 Climbing FlightAware ADS-B
Thu 06:42:47 PM 37.4193 -121.9020 135° Southeast 253 291 5,000  Level FlightAware ADS-B (EPLL / LCJ)
Thu 06:42:57 PM 37.4105 -121.8910 135° Southeast 261 300 5,000  Level FlightAware ADS-B
Thu 06:43:09 PM 37.4002 -121.8778 135° Southeast 276 318 5,000 375 Level FlightAware ADS-B (EDDM / MUC)
Thu 06:43:13 PM 37.3964 -121.8730 135° Southeast 277 319 5,100 1,263 Climbing FlightAware ADS-B
Thu 06:43:28 PM 37.3827 -121.8560 135° Southeast 276 318 5,400 1,548 Climbing FlightAware ADS-B
Thu 06:43:44 PM 37.3688 -121.8380 135° Southeast 279 321 5,900 2,286 Climbing FlightAware ADS-B
Thu 06:43:49 PM 37.3639 -121.8318 135° Southeast 279 321 6,200 2,800 Climbing FlightAware ADS-B (EDDM / MUC)
Thu 06:43:59 PM 37.3552 -121.8210 134° Southeast 277 319 6,600 2,526 Climbing FlightAware ADS-B
Thu 06:44:08 PM 37.3502 -121.8143 134° Southeast 277 319 7,000 2,400 Climbing FlightAware ADS-B (EDDM / MUC)
Thu 06:44:14 PM 37.3417 -121.8040 134° Southeast 277 319 7,200 2,333 Climbing FlightAware ADS-B
Thu 06:44:26 PM 37.3314 -121.7914 142° Southeast 280 322 7,700 2,625 Climbing FlightAware ADS-B
Thu 06:44:30 PM 37.3258 -121.7871 151° Southeast 280 322 7,900 2,700 Climbing FlightAware ADS-B (EDDM / MUC)
Thu 06:44:46 PM 37.3314 -121.7914 177° South 281 323 8,600 2,455 Climbing FlightAware ADS-B
Thu 06:44:52 PM 37.2975 -121.7830 188° South 285 328 8,800 2,500 Climbing FlightAware ADS-B
Thu 06:44:58 PM 37.2898 -121.7870 198° South 287 330 9,100 2,727 Climbing FlightAware ADS-B
Thu 06:45:03 PM 37.2839 -121.7910 211° Southwest 291 335 9,300 2,308 Climbing FlightAware ADS-B
Thu 06:45:11 PM 37.2764 -121.7990 224° Southwest 296 341 9,600 2,308 Climbing FlightAware ADS-B
Thu 06:45:29 PM 37.2642 -121.8280 253° West 304 350 10,300 2,538 Climbing FlightAware ADS-B
Thu 06:45:37 PM 37.2632 -121.8420 268° West 310 357 10,700 2,333 Climbing FlightAware ADS-B
Thu 06:45:47 PM 37.2670 -121.8162 284° West 324 373 11,000 2,333 Climbing FlightAware ADS-B
Thu 06:45:55 PM 37.2700 -121.8730 296° West 333 383 11,400 2,625 Climbing FlightAware ADS-B
Thu 06:46:03 PM 37.2776 -121.8870 309° West 341 392 11,700 2,471 Climbing FlightAware ADS-B
Thu 06:46:12 PM 37.2875 -121.8980 322° Northwest 349 402 12,100 2,700 Climbing FlightAware ADS-B
Thu 06:46:23 PM 37.3042 -121.9100 336° Northwest 359 413 12,600 2,400 Climbing FlightAware ADS-B
Thu 06:46:27 PM 37.3079 -121.9115 338° Northwest 360 414 12,700 2,000 Climbing FlightAware ADS-B (EDDM / MUC)
Thu 06:46:38 PM 37.3265 -121.9210 337° Northwest 360 414 13,100 2,526 Climbing FlightAware ADS-B
Thu 06:47:05 PM 37.3686 -121.9410 345° North 353 406 14,300 2,483 Climbing FlightAware ADS-B
Thu 06:47:07 PM 37.3711 -121.9419 345° North 353 406 14,300 2,625 Level FlightAware ADS-B
Thu 06:47:37 PM 37.4214 -121.9490 350° North 353 406 15,700 2,769 Climbing FlightAware ADS-B
Thu 06:47:46 PM 37.4333 -121.9505 355° North 370 426 16,100 2,520 Climbing FlightAware ADS-B
Thu 06:48:27 PM 37.5065 -121.9582 356° North 387 445 17,800 2,500 Climbing FlightAware ADS-B
Thu 06:48:46 PM 37.5416 -121.9530 356° North 387 445 18,600 2,400 Climbing FlightAware ADS-B
Thu 06:48:47 PM 37.5433 -121.9528 19° North 396 456 18,600 2,571 Level FlightAware ADS-B
Thu 06:48:53 PM 37.5541 -121.9470 27° Northeast 398 458 18,900 2,842 Climbing FlightAware ADS-B
Thu 06:49:06 PM 37.5721 -121.9309 42° Northeast 400 460 19,500 2,471 Climbing FlightAware ADS-B
Thu 06:49:27 PM 37.5953 -121.8936 56° Northeast 407 468 20,300 2,348 Climbing FlightAware ADS-B
Thu 06:49:29 PM 37.5993 -121.8860 56° Northeast 407 468 20,400 2,545 Climbing FlightAware ADS-B
Thu 06:50:00 PM 37.6323 -121.8260 56° Northeast 412 474 21,700 2,595 Climbing FlightAware ADS-B
Thu 06:50:06 PM 37.6392 -121.8132 56° Northeast 414 476 22,000 2,625 Climbing FlightAware ADS-B
Thu 06:50:32 PM 37.6674 -121.7610 56° Northeast 417 480 23,100 2,488 Climbing FlightAware ADS-B
Thu 06:50:47 PM 37.6835 -121.7320 55° Northeast 418 481 23,700 2,400 Climbing FlightAware ADS-B
Thu 06:51:02 PM 37.7007 -121.7010 56° Northeast 420 483 24,300 2,462 Climbing FlightAware ADS-B
Thu 06:51:26 PM 37.7264 -121.6533 55° Northeast 421 484 25,300 2,516 Climbing FlightAware ADS-B
Thu 06:51:33 PM 37.7342 -121.6390 55° Northeast 423 487 25,600 2,526 Climbing FlightAware ADS-B
Thu 06:52:04 PM 37.7688 -121.5750 56° Northeast 424 488 26,900 2,647 Climbing FlightAware ADS-B
Thu 06:52:07 PM 37.7603 -121.5910 56° Northeast 426 490 27,100 2,195 Climbing FlightAware ADS-B
Thu 06:52:45 PM 37.8098 -121.4997 56° Northeast 436 502 28,400 1,950 Climbing FlightAware ADS-B
Thu 06:52:47 PM 37.8166 -121.4870 56° Northeast 435 501 28,400 882 Level FlightAware ADS-B
Thu 06:53:19 PM 37.8535 -121.4180 56° Northeast 453 521 28,900 973 Climbing FlightAware ADS-B
Thu 06:53:24 PM 37.8600 -121.4063 56° Northeast 464 534 29,000 2,000 Climbing FlightAware ADS-B
Thu 06:53:55 PM 37.8969 -121.3380 56° Northeast 461 531 30,100 2,286 Climbing FlightAware ADS-B
Thu 06:54:06 PM 37.9037 -121.3256 56° Northeast 458 527 30,600 2,625 Climbing FlightAware ADS-B
Thu 06:54:27 PM 37.9356 -121.2670 56° Northeast 456 525 31,500 2,634 Climbing FlightAware ADS-B
Thu 06:54:47 PM 37.9375 -121.2631 56° Northeast 453 521 32,400 2,600 Climbing FlightAware ADS-B
Thu 06:54:57 PM 37.9715 -121.2000 56° Northeast 451 519 32,800 2,400 Climbing FlightAware ADS-B
Thu 06:55:27 PM 37.9869 -121.1713 56° Northeast 447 514 34,000 2,480 Climbing FlightAware ADS-B
Thu 06:56:12 PM 38.0168 -121.1154 65° Northeast 444 511 35,900 2,025 Climbing FlightAware ADS-B
Thu 06:56:47 PM 38.0862 -120.9553 73° East 446 513 36,700 1,397 Climbing FlightAware ADS-B
Thu 06:57:25 PM 38.1078 -120.8679 73° East 452 520 37,600 1,481 Climbing FlightAware ADS-B
Thu 06:58:08 PM 38.1307 -120.7747 73° East 454 522 38,700 1,500 Climbing FlightAware ADS-B
Thu 06:58:49 PM 38.1609 -120.6507 73° East 454 522 39,700 1,185 Climbing FlightAware ADS-B
Thu 06:59:29 PM 38.1795 -120.5713 73° East 464 534 40,300 779 Climbing FlightAware ADS-B
Thu 07:00:06 PM 38.2056 -120.4614 73° East 472 543 40,700 525 Climbing FlightAware ADS-B
Thu 07:00:49 PM 38.2365 -120.3309 73° East 483 556 41,000 231 Climbing FlightAware ADS-B
Thu 07:01:24 PM 38.2428 -120.3040 74° East 500 575 41,000  Level FlightAware ADS-B
Thu 07:02:05 PM 38.2715 -120.1809 74° East 511 588 41,000  Level FlightAware ADS-B
Thu 07:03:08 PM 38.3290 -119.9345 74° East 518 596 41,000  Level FlightAware ADS-B
Thu 07:03:45 PM 38.3482 -119.8516 73° East 520 598 41,000  Level FlightAware ADS-B
Thu 07:04:29 PM 38.3828 -119.7012 74° East 519 597 41,000  Level FlightAware ADS-B
Thu 07:05:10 PM 38.4012 -119.6217 74° East 517 595 41,000  Level FlightAware ADS-B
Thu 07:05:42 PM 38.4312 -119.4898 74° East 515 593 41,000  Level FlightAware ADS-B
Thu 07:06:12 PM 38.4516 -119.4007 74° East 516 594 41,000  Level FlightAware ADS-B
Thu 07:06:49 PM 38.4687 -119.3250 74° East 514 592 41,000  Level FlightAware ADS-B
Thu 07:07:29 PM 38.4904 -119.2285 78° East 513 590 41,000  Level FlightAware ADS-B
Thu 07:07:48 PM 38.5052 -119.1419 83° East 512 589 41,000  Level FlightAware ADS-B
Thu 07:08:28 PM 38.5188 -119.0140 83° East 511 588 41,000  Level FlightAware ADS-B
Thu 07:09:01 PM 38.5294 -118.9096 83° East 511 588 41,000  Level FlightAware ADS-B
Thu 07:09:41 PM 38.5356 -118.8481 83° East 510 587 41,000  Level FlightAware ADS-B
Thu 07:10:27 PM 38.5497 -118.7086 83° East 511 588 41,000  Level FlightAware ADS-B
Thu 07:11:39 PM 38.5742 -118.4556 83° East 511 588 41,000  Level Salt Lake Center
Thu 07:12:37 PM 38.5911 -118.2783 83° East 511 588 41,000 50 Level Oakland Center
Thu 07:13:39 PM 38.6083 -118.0986 83° East 511 588 41,100  Climbing Oakland Center
Thu 07:14:41 PM 38.6233 -117.9231 84° East 514 592 41,000 -48 Descending Oakland Center
Thu 07:15:43 PM 38.6433 -117.7028 83° East 515 593 41,000  Level Oakland Center
Thu 07:16:44 PM 38.6603 -117.5172 83° East 517 595 41,000  Level Oakland Center
Thu 07:17:46 PM 38.6758 -117.3317 84° East 519 597 41,000  Level Oakland Center
Thu 07:18:48 PM 38.7011 -117.1511 80° East 517 595 41,000  Level Oakland Center
Thu 07:19:49 PM 38.7281 -116.9717 79° East 513 590 41,000  Level Oakland Center
Thu 07:20:51 PM 38.7542 -116.7925 79° East 512 589 41,000  Level Oakland Center
Thu 07:21:56 PM 38.7806 -116.6150 79° East 507 583 41,000  Level Salt Lake Center
Thu 07:22:54 PM 38.8050 -116.4378 80° East 504 580 41,000  Level Oakland Center
Thu 07:23:56 PM 38.8314 -116.2619 79° East 504 580 41,000  Level Oakland Center
Thu 07:25:01 PM 38.8614 -116.0494 80° East 504 580 41,000  Level Salt Lake Center
Thu 07:26:03 PM 38.8856 -115.8703 80° East 505 581 41,000  Level Salt Lake Center
Thu 07:27:05 PM 38.9106 -115.6908 80° East 512 589 41,000  Level Salt Lake Center
Thu 07:28:07 PM 38.9350 -115.5103 80° East 513 590 41,000  Level Salt Lake Center
Thu 07:29:08 PM 38.9644 -115.3072 79° East 513 590 41,000  Level Salt Lake Center
Thu 07:34:59 PM 39.0959 -114.2813 81° East 508 585 41,000  Level FlightAware ADS-B
Thu 07:35:42 PM 39.1134 -114.1410 81° East 506 582 41,000  Level FlightAware ADS-B
Thu 07:36:21 PM 39.1300 -114.0055 81° East 507 583 41,000  Level FlightAware ADS-B
Thu 07:36:54 PM 39.1391 -113.9305 81° East 506 582 41,000  Level FlightAware ADS-B
Thu 07:37:24 PM 39.1523 -113.8206 81° East 506 582 41,000  Level FlightAware ADS-B
Thu 07:37:55 PM 39.1607 -113.7499 81° East 506 582 41,000  Level FlightAware ADS-B
Thu 07:38:36 PM 39.1774 -113.6097 81° East 506 582 41,000  Level FlightAware ADS-B
Thu 07:39:06 PM 39.1874 -113.5241 81° East 507 583 41,000  Level FlightAware ADS-B
Thu 07:39:37 PM 39.1988 -113.4271 82° East 505 581 41,000  Level FlightAware ADS-B
Thu 07:40:07 PM 39.2088 -113.3415 82° East 506 582 41,000  Level FlightAware ADS-B
Thu 07:40:37 PM 39.2193 -113.2506 82° East 505 581 41,000  Level FlightAware ADS-B
Thu 07:41:07 PM 39.2289 -113.1674 82° East 504 580 41,000  Level FlightAware ADS-B
Thu 07:41:47 PM 39.2433 -113.0402 82° East 505 581 41,000  Level FlightAware ADS-B
Thu 07:42:17 PM 39.2528 -112.9559 82° East 505 581 41,000  Level FlightAware ADS-B
Thu 07:42:47 PM 39.2626 -112.8673 82° East 504 580 41,000  Level FlightAware ADS-B
Thu 07:43:17 PM 39.2731 -112.7719 82° East 503 579 41,000  Level FlightAware ADS-B
Thu 07:43:27 PM 39.2766 -112.7416 83° East 503 579 41,000  Level FlightAware ADS-B
Thu 07:43:57 PM 39.2845 -112.6715 82° East 505 581 41,000  Level FlightAware ADS-B
Thu 07:44:37 PM 39.2991 -112.5374 82° East 506 582 41,000  Level FlightAware ADS-B
Thu 07:45:07 PM 39.3055 -112.4426 86° East 507 583 41,000  Level FlightAware ADS-B
Thu 07:45:46 PM 39.3111 -112.3238 87° East 508 585 41,000  Level FlightAware ADS-B
Thu 07:46:17 PM 39.3146 -112.2508 87° East 509 586 41,000  Level FlightAware ADS-B
Thu 07:46:53 PM 39.3205 -112.1207 88° East 510 587 41,000  Level FlightAware ADS-B
Thu 07:47:28 PM 39.3247 -112.0243 87° East 511 588 41,000  Level FlightAware ADS-B
Thu 07:48:05 PM 39.3301 -111.9032 88° East 509 586 41,000  Level FlightAware ADS-B
Thu 07:48:38 PM 39.3332 -111.8335 87° East 509 586 41,000  Level FlightAware ADS-B
Thu 07:49:14 PM 39.3387 -111.7028 87° East 509 586 41,000  Level FlightAware ADS-B
Thu 07:49:48 PM 39.3431 -111.5970 87° East 508 585 41,000  Level FlightAware ADS-B
Thu 07:50:02 PM 39.3451 -111.5493 88° East 507 583 41,000  Level FlightAware ADS-B
Thu 07:50:36 PM 39.3493 -111.4460 87° East 507 583 41,000  Level FlightAware ADS-B
Thu 07:51:10 PM 39.3521 -111.3744 87° East 507 583 41,000  Level FlightAware ADS-B
Thu 07:51:40 PM 39.3568 -111.2564 87° East 505 581 41,000  Level FlightAware ADS-B
Thu 07:52:21 PM 39.3613 -111.1332 87° East 505 581 41,000  Level FlightAware ADS-B
Thu 07:52:51 PM 39.3643 -111.0461 87° East 505 581 41,000  Level FlightAware ADS-B
Thu 07:53:28 PM 39.3680 -110.9410 87° East 506 582 41,000  Level FlightAware ADS-B
Thu 07:54:05 PM 39.3710 -110.8551 87° East 506 582 41,000  Level FlightAware ADS-B
Thu 07:54:37 PM 39.3751 -110.7372 88° East 506 582 41,000  Level FlightAware ADS-B
Thu 07:55:08 PM 39.3786 -110.6295 88° East 505 581 41,000  Level FlightAware ADS-B
Thu 07:55:48 PM 39.3867 -110.5204 82° East 506 582 41,000 -247 Level FlightAware ADS-B
Thu 07:56:21 PM 39.3962 -110.4308 82° East 507 583 40,700 -870 Descending FlightAware ADS-B
Thu 07:56:57 PM 39.4033 -110.3655 82° East 507 583 40,000 -1,213 Descending FlightAware ADS-B (KGUC)
Thu 07:57:50 PM 39.4247 -110.1624 82° East 503 579 38,900 -1,240 Descending FlightAware ADS-B
Thu 07:58:58 PM 39.4470 -109.9468 82° East 485 558 37,500 -1,212 Descending FlightAware ADS-B
Thu 07:59:29 PM 39.4560 -109.8587 82° East 478 550 36,900 -1,180 Descending FlightAware ADS-B (KGUC)
Thu 07:59:59 PM 39.4647 -109.7731 83° East 475 547 36,300 -1,200 Descending FlightAware ADS-B (KGUC)
Thu 08:00:29 PM 39.4730 -109.6923 83° East 473 544 35,700 -1,200 Descending FlightAware ADS-B (KGUC)
Thu 08:00:59 PM 39.4814 -109.6068 83° East 471 542 35,100 -1,200 Descending FlightAware ADS-B (KGUC)
Thu 08:01:29 PM 39.4896 -109.5217 83° East 471 542 34,500 -1,200 Descending FlightAware ADS-B (KGUC)
Thu 08:01:59 PM 39.4978 -109.4376 83° East 477 549 33,900 -1,200 Descending FlightAware ADS-B (KGUC)
Thu 08:02:29 PM 39.4978 -109.4376 83° East 482 555 33,300 -1,400 Descending FlightAware ADS-B (KGUC)
Thu 08:02:59 PM 39.5142 -109.2678 83° East 496 571 32,500 -1,500 Descending FlightAware ADS-B (KGUC)
Thu 08:03:29 PM 39.5214 -109.1931 83° East 498 573 31,800 -1,548 Descending FlightAware ADS-B (KGUC)
Thu 08:04:01 PM 39.5299 -109.1073 83° East 467 537 30,900 -1,562 Descending FlightAware ADS-B
Thu 08:04:42 PM 39.5420 -108.9811 83° East 435 501 29,900 -1,500 Descending FlightAware ADS-B
Thu 08:05:17 PM 39.5511 -108.8876 83° East 419 482 29,000 -1,455 Descending FlightAware ADS-B
Thu 08:05:48 PM 39.5583 -108.8124 83° East 416 479 28,300 -1,433 Descending FlightAware ADS-B
Thu 08:06:24 PM 39.5658 -108.7298 84° East 419 482 27,400 -1,182 Descending FlightAware ADS-B
Thu 08:06:54 PM 39.5732 -108.6502 83° East 403 464 27,000 -1,048 Descending FlightAware ADS-B
Thu 08:07:27 PM 39.5803 -108.5723 83° East 392 451 26,300 -1,406 Descending FlightAware ADS-B
Thu 08:07:58 PM 39.5865 -108.5018 83° East 391 450 25,500 -1,524 Descending FlightAware ADS-B
Thu 08:08:30 PM 39.5909 -108.4527 84° East 387 445 24,700 -1,543 Descending FlightAware ADS-B
Thu 08:09:08 PM 39.5910 -108.4513 84° East 383 441 23,700 -1,575 Descending FlightAware ADS-B (KGUC)
Thu 08:09:50 PM 39.6089 -108.2449 84° East 374 430 22,600 -1,622 Descending FlightAware ADS-B
Thu 08:10:22 PM 39.6134 -108.1934 83° East 366 421 21,700 -1,935 Descending FlightAware ADS-B
Thu 08:10:52 PM 39.6197 -108.1209 84° East 360 414 20,600 -2,095 Descending FlightAware ADS-B
Thu 08:11:25 PM 39.6267 -108.0385 84° East 356 410 19,500 -2,000 Descending FlightAware ADS-B
Thu 08:11:55 PM 39.6319 -107.9786 83° East 348 400 18,500 -2,000 Descending FlightAware ADS-B
Thu 08:12:34 PM 39.6383 -107.9038 84° East 341 392 17,200 -1,213 Descending FlightAware ADS-B
Thu 08:13:24 PM 39.6429 -107.8491 84° East 326 375 16,700 -375 Descending FlightAware ADS-B
Thu 08:13:54 PM 39.6516 -107.7442 84° East 330 380 16,700  Level FlightAware ADS-B
Thu 08:14:24 PM 39.6553 -107.6991 84° East 331 381 16,700  Level FlightAware ADS-B
Thu 08:15:28 PM 39.6633 -107.5994 84° East 333 383 16,700  Level FlightAware ADS-B
Thu 08:16:30 PM 39.6726 -107.4898 118° Southeast 327 376 16,700  Level FlightAware ADS-B
Thu 08:17:33 PM 39.6218 -107.3330 118° Southeast 330 380 16,700  Level FlightAware ADS-B
Thu 08:18:45 PM 39.5776 -107.2299 155° Southeast 323 372 16,700  Level FlightAware ADS-B
Thu 08:19:45 PM 39.4742 -107.1668 157° South 323 372 16,700  Level FlightAware ADS-B
Thu 08:20:46 PM 39.3930 -107.1268 170° South 314 361 16,700  Level FlightAware ADS-B
Thu 08:21:19 PM 39.4081 -107.1311 159° South 317 365 16,700 -196 Level FlightAware ADS-B
Thu 08:23:19 PM 39.3953 -106.9280 North 287 330 16,200 -366 Descending FlightAware ADS-B
Thu 08:24:03 PM 39.4546 -106.9377 338° Northwest 264 304 15,700 -145 Descending FlightAware ADS-B
Thu 08:25:23 PM 39.4764 -107.0100 338° Northwest 251 289 15,900 -503 Climbing Denver Center
Thu 08:26:26 PM 39.4081 -106.9878 166° South 248 285 14,500 -1,920 Descending Denver Center
Thu 08:27:28 PM 39.3497 -106.9558 157° South 242 278 11,900 -2,371 Descending Denver Center
Thu 08:28:30 PM 39.2989 -106.9194 151° Southeast 227 261 9,600 -1,597 Descending Denver Center
Thu 08:29:32 PM 39.2667 -106.8731 132° Southeast 215 247 8,600 -968 Descending Denver Center
Thu 08:31:00 PM 39.2167 -106.8667 176° South  Level FlightAware Approximate
Thu 08:38:00 PM 39.2219 -106.8682 347° North  Level Estimated
Thu 08:39:00 PM 39.2167 -106.8667 176° South  Level FlightAware Approximate
Thu 08:40:00 PM 39.2219 -106.8682 347° North  Level Estimated

Login

Don't have an account? Register now (free) for customized features, flight alerts, and more!